Time;durP1;ratioP1;P1;durP2;ratioP2;P2;SDS_P1;SDS_P2;PMS_P1;PMS_P2;Temp;Humidity;BMP_temperature;BMP_pressure;BME280_temperature;BME280_humidity;BME280_pressure;Samples;Min_cycle;Max_cycle;Signal;HPM_P1;HPM_P2
2021/08/14 00:01:16;;;;;;;9.60;7.60;;;14.70;99.90;;;;;;4996586;28;20501;-59
2021/08/14 00:03:43;;;;;;;8.47;7.20;;;14.60;99.90;;;;;;4998895;28;20507;-59
2021/08/14 00:06:11;;;;;;;10.17;7.90;;;14.50;99.90;;;;;;4979854;28;20898;-57
2021/08/14 00:08:39;;;;;;;11.00;8.37;;;14.60;99.90;;;;;;4980256;28;20462;-59
2021/08/14 00:11:06;;;;;;;11.20;8.13;;;14.50;99.90;;;;;;4979916;28;20500;-59
2021/08/14 00:13:37;;;;;;;9.60;8.60;;;14.60;99.90;;;;;;4979721;28;20871;-59
2021/08/14 00:16:05;;;;;;;13.30;8.30;;;14.50;99.90;;;;;;4980129;28;20464;-59
2021/08/14 00:18:32;;;;;;;9.93;8.27;;;14.50;99.90;;;;;;4979548;28;20470;-59
2021/08/14 00:21:05;;;;;;;9.70;8.73;;;14.50;99.90;;;;;;4979378;28;20913;-58
2021/08/14 00:23:32;;;;;;;9.47;8.43;;;14.50;99.90;;;;;;4993045;28;20489;-58
2021/08/14 00:25:59;;;;;;;11.97;8.30;;;14.50;99.90;;;;;;4999078;28;20596;-59
2021/08/14 00:28:29;;;;;;;11.43;8.90;;;14.50;99.90;;;;;;4980894;28;20466;-59
2021/08/14 00:30:58;;;;;;;10.07;7.60;;;14.40;99.90;;;;;;4980209;28;20520;-59
2021/08/14 00:33:25;;;;;;;8.63;7.70;;;14.30;99.90;;;;;;4998220;28;20500;-59
2021/08/14 00:35:52;;;;;;;12.37;8.40;;;14.30;99.90;;;;;;4993923;28;20911;-59
2021/08/14 00:38:19;;;;;;;10.93;8.10;;;14.30;99.90;;;;;;4979065;28;20533;-59
2021/08/14 00:40:46;;;;;;;9.93;8.53;;;14.30;99.90;;;;;;4978740;28;20814;-58
2021/08/14 00:43:13;;;;;;;11.57;8.40;;;14.20;99.90;;;;;;4979046;28;20533;-58
2021/08/14 00:45:43;;;;;;;9.87;8.43;;;14.20;99.90;;;;;;4989344;28;20889;-59
2021/08/14 00:48:12;;;;;;;11.20;9.00;;;14.20;99.90;;;;;;4996123;28;20559;-59
2021/08/14 00:50:40;;;;;;;12.67;8.20;;;14.10;99.90;;;;;;4992896;28;20493;-59
2021/08/14 00:53:08;;;;;;;10.73;9.13;;;14.00;99.90;;;;;;4998255;28;20512;-59
2021/08/14 00:55:35;;;;;;;10.17;8.43;;;13.90;99.90;;;;;;4979672;28;20945;-59
2021/08/14 00:58:02;;;;;;;12.30;8.93;;;13.90;99.90;;;;;;4980165;28;20485;-59
2021/08/14 01:00:35;;;;;;;10.70;7.80;;;13.90;99.90;;;;;;4998576;28;20512;-53
2021/08/14 01:03:03;;;;;;;11.90;8.63;;;13.90;99.90;;;;;;4992297;28;21001;-59
2021/08/14 01:05:32;;;;;;;13.00;9.53;;;13.90;99.90;;;;;;4978672;28;20465;-59
2021/08/14 01:07:59;;;;;;;11.37;9.40;;;13.90;99.90;;;;;;4978217;28;20528;-59
2021/08/14 01:10:26;;;;;;;8.53;7.67;;;13.90;99.90;;;;;;4978909;28;20831;-59
2021/08/14 01:12:55;;;;;;;11.27;8.53;;;13.80;99.90;;;;;;4978227;28;20497;-59
2021/08/14 01:15:24;;;;;;;10.67;8.73;;;13.80;99.90;;;;;;4978579;28;20536;-60
2021/08/14 01:17:51;;;;;;;12.03;9.80;;;13.80;99.90;;;;;;4978546;28;20558;-60
2021/08/14 01:20:18;;;;;;;13.17;9.87;;;13.80;99.90;;;;;;4978786;28;20912;-60
2021/08/14 01:22:47;;;;;;;11.10;9.00;;;13.80;99.90;;;;;;4978781;28;20926;-60
2021/08/14 01:25:14;;;;;;;11.70;7.23;;;13.80;99.90;;;;;;4978162;28;20501;-61
2021/08/14 01:27:42;;;;;;;10.83;9.13;;;13.90;99.90;;;;;;4978207;28;20509;-61
2021/08/14 01:30:13;;;;;;;11.20;8.63;;;13.80;99.90;;;;;;4978613;28;20462;-61
2021/08/14 01:32:40;;;;;;;9.57;8.13;;;13.70;99.90;;;;;;4978487;28;20465;-61
2021/08/14 01:35:08;;;;;;;11.90;8.63;;;13.60;99.90;;;;;;4978240;28;20505;-61
2021/08/14 01:37:35;;;;;;;13.77;9.23;;;13.50;99.90;;;;;;4978458;28;20936;-61
2021/08/14 01:40:04;;;;;;;10.70;9.70;;;13.50;99.90;;;;;;4978235;28;20589;-61
2021/08/14 01:42:31;;;;;;;13.47;8.70;;;13.40;99.90;;;;;;4978275;28;20568;-61
2021/08/14 01:44:59;;;;;;;11.80;9.27;;;13.40;99.90;;;;;;4977730;28;20561;-61
2021/08/14 01:47:27;;;;;;;12.40;8.97;;;13.50;99.90;;;;;;4978068;28;20501;-61
2021/08/14 01:49:53;;;;;;;12.33;10.13;;;13.50;99.90;;;;;;4977973;28;20565;-61
2021/08/14 01:52:20;;;;;;;10.67;8.67;;;13.50;99.90;;;;;;4978492;28;20489;-61
2021/08/14 01:54:48;;;;;;;10.07;8.90;;;13.50;99.90;;;;;;4978412;28;20520;-61
2021/08/14 01:57:17;;;;;;;12.47;9.83;;;13.50;99.90;;;;;;4978235;28;20895;-61
2021/08/14 01:59:45;;;;;;;11.40;8.33;;;13.50;99.90;;;;;;4978048;28;20465;-61
2021/08/14 02:02:16;;;;;;;12.43;8.73;;;13.50;99.90;;;;;;4977742;28;20567;-61
2021/08/14 02:04:43;;;;;;;10.73;9.30;;;13.50;99.90;;;;;;4978496;28;20557;-61
2021/08/14 02:07:09;;;;;;;11.37;9.10;;;13.40;99.90;;;;;;4978016;28;20953;-61
2021/08/14 02:09:36;;;;;;;11.13;9.30;;;13.40;99.90;;;;;;4978037;28;20556;-62
2021/08/14 02:12:04;;;;;;;13.37;10.40;;;13.30;99.90;;;;;;4978211;28;20917;-61
2021/08/14 02:14:31;;;;;;;12.67;8.30;;;13.30;99.90;;;;;;4978199;28;20917;-61
2021/08/14 02:16:58;;;;;;;11.83;9.53;;;13.30;99.90;;;;;;4977882;28;20560;-61
2021/08/14 02:19:26;;;;;;;13.73;8.87;;;13.30;99.90;;;;;;4979540;28;20466;-61
2021/08/14 02:21:53;;;;;;;19.03;10.00;;;13.30;99.90;;;;;;4981703;28;20521;-61
2021/08/14 02:24:19;;;;;;;10.83;8.40;;;13.30;99.90;;;;;;4981764;28;20552;-61
2021/08/14 02:26:46;;;;;;;12.30;9.27;;;13.30;99.90;;;;;;4981724;28;20806;-61
2021/08/14 02:29:13;;;;;;;14.43;8.80;;;13.30;99.90;;;;;;4981491;28;20489;-61
2021/08/14 02:31:40;;;;;;;10.57;9.00;;;13.20;99.90;;;;;;4981375;28;20505;-61
2021/08/14 02:34:07;;;;;;;12.33;8.93;;;13.20;99.90;;;;;;4981477;28;20835;-61
2021/08/14 02:36:35;;;;;;;11.80;9.63;;;13.20;99.90;;;;;;4981934;28;20813;-61
2021/08/14 02:39:02;;;;;;;12.00;10.50;;;13.20;99.90;;;;;;4981292;28;20914;-61
2021/08/14 02:41:29;;;;;;;21.10;16.80;;;13.20;99.90;;;;;;4980776;28;20497;-61
2021/08/14 02:43:56;;;;;;;20.27;17.70;;;13.20;99.90;;;;;;4981530;28;20588;-62
2021/08/14 02:46:23;;;;;;;18.20;16.40;;;13.20;99.90;;;;;;4981362;28;20770;-61
2021/08/14 02:48:50;;;;;;;16.37;13.77;;;13.20;99.90;;;;;;4981029;28;20520;-61
2021/08/14 02:51:17;;;;;;;15.77;11.77;;;13.10;99.90;;;;;;4980928;28;20505;-62
2021/08/14 02:53:45;;;;;;;11.77;10.60;;;13.10;99.90;;;;;;4981116;28;20826;-62
2021/08/14 02:56:13;;;;;;;12.53;10.10;;;13.00;99.90;;;;;;4981052;28;20506;-62
2021/08/14 02:58:40;;;;;;;13.30;10.33;;;13.00;99.90;;;;;;4981181;28;20895;-62
2021/08/14 03:01:11;;;;;;;14.10;10.50;;;13.00;99.90;;;;;;4980878;28;20474;-62
2021/08/14 03:03:38;;;;;;;11.90;10.30;;;13.00;99.90;;;;;;4980941;28;20782;-62
2021/08/14 03:06:21;;;;;;;11.80;8.77;;;13.00;99.90;;;;;;4981098;28;20556;-62
2021/08/14 03:08:49;;;;;;;10.77;9.67;;;13.00;99.90;;;;;;4980952;28;20552;-62
2021/08/14 03:11:20;;;;;;;11.87;9.63;;;13.10;99.90;;;;;;4980501;28;20529;-62
2021/08/14 03:13:47;;;;;;;13.70;9.57;;;13.10;99.90;;;;;;4980816;28;20506;-62
2021/08/14 03:16:13;;;;;;;13.13;9.40;;;13.20;99.90;;;;;;4980647;28;20910;-62
2021/08/14 03:18:40;;;;;;;12.47;10.47;;;13.20;99.90;;;;;;4980582;28;20548;-62
2021/08/14 03:21:10;;;;;;;12.57;9.90;;;13.30;99.90;;;;;;4981074;28;20560;-62
2021/08/14 03:23:36;;;;;;;10.23;9.20;;;13.20;99.90;;;;;;4980549;28;20988;-62
2021/08/14 03:26:05;;;;;;;17.00;11.23;;;13.10;99.90;;;;;;4980795;28;20906;-61
2021/08/14 03:28:32;;;;;;;14.43;10.20;;;13.10;99.90;;;;;;4980566;28;20899;-61
2021/08/14 03:30:59;;;;;;;15.10;11.00;;;13.10;99.90;;;;;;4979630;28;20548;-62
2021/08/14 03:33:26;;;;;;;12.70;11.33;;;13.10;99.90;;;;;;4979915;28;20501;-62
2021/08/14 03:35:52;;;;;;;10.67;9.50;;;13.00;99.90;;;;;;4980331;28;20536;-61
2021/08/14 03:38:19;;;;;;;12.87;10.70;;;13.00;99.90;;;;;;4980084;28;20588;-62
2021/08/14 03:40:46;;;;;;;11.37;9.43;;;13.10;99.90;;;;;;4980501;28;20906;-62
2021/08/14 03:43:18;;;;;;;11.47;10.27;;;13.10;99.90;;;;;;4979793;28;20534;-62
2021/08/14 03:45:46;;;;;;;11.73;10.20;;;13.00;99.90;;;;;;4980370;28;20476;-62
2021/08/14 03:48:13;;;;;;;10.53;9.43;;;13.00;99.90;;;;;;4980254;28;20862;-62
2021/08/14 03:50:39;;;;;;;12.20;10.07;;;13.00;99.90;;;;;;4980522;28;20481;-62
2021/08/14 03:53:11;;;;;;;11.83;9.93;;;13.00;99.90;;;;;;4979896;28;20571;-62
2021/08/14 03:55:38;;;;;;;12.00;9.40;;;12.90;99.90;;;;;;4979952;28;20465;-62
2021/08/14 03:58:05;;;;;;;12.80;9.47;;;12.90;99.90;;;;;;4980208;28;20564;-62
2021/08/14 04:00:34;;;;;;;15.00;10.07;;;12.80;99.90;;;;;;4979980;28;20497;-62
2021/08/14 04:03:01;;;;;;;11.60;9.80;;;12.80;99.90;;;;;;4979665;28;20504;-62
2021/08/14 04:47:29;;;;;;;15.90;9.80;;;13.20;99.90;;;;;;5416954;23;20443;-61
2021/08/14 04:49:56;;;;;;;15.90;10.13;;;13.10;99.90;;;;;;4978258;28;20805;-62
2021/08/14 04:52:23;;;;;;;12.50;10.80;;;13.10;99.90;;;;;;4978860;28;20568;-62
2021/08/14 04:54:50;;;;;;;14.53;10.70;;;13.10;99.90;;;;;;4970989;28;20872;-62
2021/08/14 04:57:17;;;;;;;12.00;10.17;;;13.10;99.90;;;;;;4979371;28;20487;-62
2021/08/14 04:59:44;;;;;;;11.37;10.17;;;13.20;99.90;;;;;;4979201;28;20468;-62
2021/08/14 05:02:11;;;;;;;11.00;9.63;;;13.20;99.90;;;;;;4978774;28;20941;-62
2021/08/14 05:04:39;;;;;;;13.17;11.40;;;13.20;99.90;;;;;;4978833;28;20855;-62
2021/08/14 05:07:06;;;;;;;12.70;10.37;;;13.20;99.90;;;;;;4978951;28;20506;-62
2021/08/14 05:09:36;;;;;;;16.23;11.00;;;13.30;99.90;;;;;;4978787;28;20469;-62
2021/08/14 05:12:04;;;;;;;13.17;11.27;;;13.30;99.90;;;;;;4978798;28;20477;-62
2021/08/14 05:14:32;;;;;;;13.10;11.27;;;13.30;99.90;;;;;;4978536;28;20536;-62
2021/08/14 05:16:59;;;;;;;14.00;12.30;;;13.30;99.90;;;;;;4971638;28;20505;-62
2021/08/14 05:19:26;;;;;;;14.47;12.20;;;13.30;99.90;;;;;;4958798;29;20507;-62
2021/08/14 05:21:54;;;;;;;16.20;11.73;;;13.40;99.90;;;;;;4959582;29;20490;-62
2021/08/14 05:24:21;;;;;;;18.40;12.37;;;13.40;99.90;;;;;;4958899;29;20502;-62
2021/08/14 05:26:48;;;;;;;17.67;12.70;;;13.50;99.90;;;;;;4959091;29;20560;-62
2021/08/14 05:29:15;;;;;;;17.83;13.20;;;13.60;99.90;;;;;;4959210;29;20466;-62
2021/08/14 05:31:42;;;;;;;19.70;13.37;;;13.70;99.90;;;;;;4959193;29;20506;-62
2021/08/14 05:34:09;;;;;;;15.73;11.80;;;13.80;99.90;;;;;;4958688;29;21039;-62
2021/08/14 05:36:36;;;;;;;15.33;12.80;;;13.90;99.90;;;;;;4959129;29;20496;-62
2021/08/14 05:39:04;;;;;;;16.17;13.10;;;14.00;99.90;;;;;;4959120;29;20846;-62
2021/08/14 05:41:32;;;;;;;15.23;12.67;;;14.10;99.90;;;;;;4959209;29;20771;-62
2021/08/14 05:43:59;;;;;;;14.07;12.63;;;14.20;99.90;;;;;;4958783;29;20526;-62
2021/08/14 05:46:30;;;;;;;14.73;13.13;;;14.30;99.90;;;;;;4958459;29;20478;-62
2021/08/14 05:48:56;;;;;;;14.90;12.00;;;14.40;99.90;;;;;;4966949;28;20548;-62
2021/08/14 05:51:24;;;;;;;14.33;12.17;;;14.50;99.90;;;;;;4978459;28;20569;-62
2021/08/14 05:53:54;;;;;;;15.80;12.90;;;14.60;99.90;;;;;;4978756;28;20600;-62
2021/08/14 05:56:22;;;;;;;14.03;12.23;;;14.70;99.90;;;;;;4981773;28;20480;-62
2021/08/14 05:58:49;;;;;;;15.30;11.50;;;14.90;99.90;;;;;;4982114;28;20469;-62
2021/08/14 06:01:16;;;;;;;14.80;12.07;;;15.00;99.90;;;;;;4977619;28;20923;-62
2021/08/14 06:03:43;;;;;;;17.90;13.10;;;15.20;99.90;;;;;;4980777;28;20552;-62
2021/08/14 06:06:10;;;;;;;15.80;13.00;;;15.40;99.90;;;;;;4981139;28;20465;-62
2021/08/14 06:08:37;;;;;;;14.40;12.37;;;15.50;99.90;;;;;;4981951;28;20464;-62
2021/08/14 06:11:08;;;;;;;16.17;14.43;;;15.70;99.90;;;;;;4981690;28;20818;-62
2021/08/14 06:13:36;;;;;;;15.67;13.80;;;15.90;99.90;;;;;;4981815;28;20517;-62
2021/08/14 06:16:05;;;;;;;18.30;13.07;;;16.10;99.90;;;;;;4981584;28;20904;-62
2021/08/14 06:18:31;;;;;;;14.00;12.50;;;16.40;99.90;;;;;;4962256;28;20470;-62
2021/08/14 06:21:01;;;;;;;16.40;13.50;;;16.60;99.90;;;;;;4962769;29;20521;-62
2021/08/14 06:23:28;;;;;;;17.73;13.67;;;16.90;99.90;;;;;;4962443;29;20463;-62
2021/08/14 06:25:55;;;;;;;13.90;12.50;;;17.10;99.90;;;;;;4961834;29;20506;-61
2021/08/14 06:28:22;;;;;;;18.80;12.47;;;17.30;99.90;;;;;;4961991;29;20487;-61
2021/08/14 06:30:50;;;;;;;16.27;12.97;;;17.50;99.90;;;;;;4962143;29;20845;-61
2021/08/14 06:33:17;;;;;;;14.50;13.00;;;17.80;99.90;;;;;;4962513;29;20498;-61
2021/08/14 06:35:44;;;;;;;12.67;11.40;;;17.90;99.90;;;;;;4962177;29;20498;-61
2021/08/14 06:38:11;;;;;;;13.70;11.80;;;18.20;99.90;;;;;;4962065;29;20505;-61
2021/08/14 06:40:38;;;;;;;11.90;10.70;;;18.60;99.90;;;;;;4962111;29;20462;-61
2021/08/14 06:43:07;;;;;;;14.10;11.33;;;18.70;99.90;;;;;;4961856;29;20517;-61
2021/08/14 06:45:34;;;;;;;12.87;10.80;;;18.90;99.90;;;;;;4962283;29;20463;-61
2021/08/14 06:48:02;;;;;;;12.87;9.80;;;19.00;99.90;;;;;;4961604;28;20510;-60
2021/08/14 06:50:32;;;;;;;13.77;9.83;;;19.20;99.90;;;;;;4983481;28;20505;-60
2021/08/14 06:52:59;;;;;;;13.07;11.10;;;19.10;99.90;;;;;;4980630;28;20963;-60
2021/08/14 06:55:26;;;;;;;12.70;9.13;;;19.20;99.90;;;;;;4980438;28;20498;-60
2021/08/14 06:57:53;;;;;;;13.37;9.87;;;19.40;99.90;;;;;;4971352;28;20464;-60
2021/08/14 07:00:20;;;;;;;13.70;9.97;;;19.50;99.90;;;;;;4968701;28;20486;-60
2021/08/14 07:02:47;;;;;;;11.23;9.67;;;19.80;99.90;;;;;;4978185;28;20681;-60
2021/08/14 07:05:15;;;;;;;11.43;9.80;;;20.00;99.90;;;;;;4979342;28;20466;-57
2021/08/14 07:07:42;;;;;;;12.30;9.13;;;20.30;99.90;;;;;;4979680;28;20520;-58
2021/08/14 07:10:12;;;;;;;14.93;9.83;;;20.60;99.90;;;;;;4979889;28;20569;-59
2021/08/14 07:12:43;;;;;;;12.73;7.57;;;21.00;99.90;;;;;;4979334;28;20470;-59
2021/08/14 07:15:10;;;;;;;15.33;7.80;;;21.20;99.90;;;;;;4979890;28;20595;-58
2021/08/14 07:17:39;;;;;;;13.00;9.17;;;21.40;99.90;;;;;;4971202;28;20910;-58
2021/08/14 07:20:10;;;;;;;12.83;8.00;;;21.40;99.90;;;;;;4979993;28;20793;-57
2021/08/14 07:22:39;;;;;;;8.20;7.37;;;21.50;99.90;;;;;;4979591;28;20541;-59
2021/08/14 07:25:06;;;;;;;14.80;8.00;;;21.70;99.90;;;;;;4979567;28;20521;-59
2021/08/14 07:27:33;;;;;;;11.73;7.23;;;21.70;99.00;;;;;;4979590;28;20497;-59
2021/08/14 07:30:00;;;;;;;11.97;7.43;;;21.70;97.00;;;;;;4979291;28;20466;-59
2021/08/14 07:32:27;;;;;;;13.07;8.10;;;21.90;94.90;;;;;;4979251;28;20494;-59
2021/08/14 07:34:55;;;;;;;10.90;6.77;;;21.80;95.00;;;;;;4979055;28;20532;-57
2021/08/14 07:37:23;;;;;;;8.80;6.87;;;21.90;99.00;;;;;;4979605;28;20894;-59
2021/08/14 07:39:51;;;;;;;10.60;6.80;;;22.20;96.20;;;;;;4978720;28;20552;-57
2021/08/14 07:42:18;;;;;;;8.70;6.87;;;22.50;91.50;;;;;;4978926;28;20505;-57
2021/08/14 07:44:45;;;;;;;12.00;6.00;;;22.30;89.00;;;;;;4974873;28;20502;-57
2021/08/14 07:47:12;;;;;;;10.90;6.60;;;22.50;90.90;;;;;;4979544;28;20474;-55
2021/08/14 07:49:39;;;;;;;9.40;6.43;;;22.60;93.60;;;;;;4974954;28;20580;-55
2021/08/14 07:52:08;;;;;;;8.07;5.63;;;22.70;90.10;;;;;;4977806;28;20564;-57
2021/08/14 07:54:35;;;;;;;10.47;6.90;;;23.00;92.10;;;;;;4975377;28;20493;-57
2021/08/14 07:57:04;;;;;;;7.43;5.93;;;23.00;87.60;;;;;;4978753;28;20566;-57
2021/08/14 07:59:31;;;;;;;8.93;6.40;;;23.20;92.80;;;;;;4979280;28;20746;-53
2021/08/14 08:01:58;;;;;;;12.43;6.73;;;23.30;95.50;;;;;;4974255;28;20509;-55
2021/08/14 08:04:28;;;;;;;8.10;6.03;;;23.90;85.00;;;;;;4978565;28;20565;-58
2021/08/14 08:06:55;;;;;;;9.33;6.60;;;24.00;89.10;;;;;;4974908;28;20470;-58
2021/08/14 08:09:25;;;;;;;7.40;6.00;;;24.20;82.70;;;;;;4978455;28;20552;-59
2021/08/14 08:11:51;;;;;;;10.33;6.07;;;24.40;75.90;;;;;;4974436;28;20465;-59
2021/08/14 08:14:20;;;;;;;10.53;6.20;;;24.70;79.10;;;;;;4978555;28;20580;-57
2021/08/14 08:16:57;;;;;;;;;;;;;;;;;;;;;
2021/08/14 08:54:50;;;;;;;10.77;6.23;;;25.30;62.30;;;;;;3014712;23;20530;-59
2021/08/14 08:57:18;;;;;;;8.43;5.73;;;25.90;63.20;;;;;;4993708;28;20497;-59
2021/08/14 08:59:46;;;;;;;10.70;5.57;;;25.50;61.50;;;;;;4997903;28;20892;-53
2021/08/14 09:02:26;;;;;;;10.40;6.13;;;25.50;61.70;;;;;;4990264;28;20493;-50
2021/08/14 09:05:07;;;;;;;12.17;5.37;;;25.80;61.00;;;;;;4994785;28;20462;-56
2021/08/14 09:07:34;;;;;;;9.43;6.00;;;25.60;59.70;;;;;;4994466;28;20961;-56
2021/08/14 09:10:06;;;;;;;9.80;5.53;;;25.40;61.70;;;;;;4993150;28;20576;-55
2021/08/14 09:12:35;;;;;;;9.53;5.87;;;25.60;58.00;;;;;;4985375;28;20460;-56
2021/08/14 09:15:06;;;;;;;6.63;5.40;;;25.70;58.10;;;;;;4987291;28;20745;-56
2021/08/14 09:17:36;;;;;;;8.10;5.30;;;25.50;56.30;;;;;;4982351;28;20462;-57
2021/08/14 09:20:17;;;;;;;8.83;5.07;;;25.50;55.10;;;;;;4988001;28;20465;-56
2021/08/14 09:22:46;;;;;;;9.13;6.03;;;25.60;55.90;;;;;;4991047;28;20505;-56
2021/08/14 09:25:20;;;;;;;7.70;5.30;;;25.90;56.20;;;;;;4991240;28;20496;-53
2021/08/14 09:27:52;;;;;;;10.00;5.97;;;26.00;55.90;;;;;;4994166;28;20465;-53
2021/08/14 09:30:42;;;;;;;11.07;5.23;;;26.20;56.90;;;;;;4991854;28;20555;-54
2021/08/14 09:33:11;;;;;;;6.77;5.70;;;25.80;55.90;;;;;;4995455;28;20471;-53
2021/08/14 09:35:41;;;;;;;7.07;4.87;;;25.90;54.80;;;;;;4995154;28;20587;-50
2021/08/14 10:17:39;;;;;;;5.53;4.23;;;27.00;50.00;;;;;;3386128;23;20493;-55
2021/08/14 10:20:07;;;;;;;5.53;5.00;;;27.20;49.40;;;;;;4978687;28;20533;-55
2021/08/14 10:22:34;;;;;;;8.37;4.90;;;27.20;49.60;;;;;;4996763;28;20472;-55
2021/08/14 10:25:01;;;;;;;7.20;4.33;;;27.10;50.30;;;;;;4996432;28;20564;-55
2021/08/14 10:27:54;;;;;;;6.97;4.20;;;27.50;49.40;;;;;;4996436;28;20931;-55
2021/08/14 10:30:53;;;;;;;6.47;5.37;;;27.70;47.50;;;;;;4997029;28;20555;-55
2021/08/14 10:33:40;;;;;;;8.27;4.60;;;27.60;48.30;;;;;;4917836;29;20528;-54
2021/08/14 10:36:47;;;;;;;6.67;5.00;;;27.90;47.50;;;;;;4990195;28;20493;-55
2021/08/14 10:39:20;;;;;;;8.53;4.77;;;27.20;47.60;;;;;;4984115;28;20473;-53
2021/08/14 10:41:49;;;;;;;7.67;5.03;;;27.60;46.50;;;;;;4995848;28;20472;-55
2021/08/14 10:44:37;;;;;;;5.33;4.23;;;27.70;44.60;;;;;;4990413;28;20568;-55
2021/08/14 10:47:04;;;;;;;6.53;5.20;;;27.90;46.20;;;;;;4988369;28;20450;-52
2021/08/14 10:49:47;;;;;;;7.77;5.53;;;28.20;46.50;;;;;;4994307;28;20821;-55
2021/08/14 10:52:17;;;;;;;5.43;3.73;;;28.40;44.20;;;;;;4998938;28;20748;-54
2021/08/14 10:55:05;;;;;;;6.30;4.00;;;28.40;41.80;;;;;;4997769;28;20591;-53
2021/08/14 10:57:53;;;;;;;6.40;4.20;;;28.40;41.90;;;;;;4996146;28;20933;-56
2021/08/14 11:00:31;;;;;;;5.70;4.30;;;28.30;42.90;;;;;;4986813;28;20504;-54
2021/08/14 11:03:09;;;;;;;5.27;4.70;;;28.40;42.10;;;;;;4999129;28;20913;-55
2021/08/14 11:05:42;;;;;;;7.03;4.70;;;28.60;42.80;;;;;;4986920;28;20537;-56
2021/08/14 11:08:32;;;;;;;5.23;4.53;;;28.70;41.80;;;;;;4994375;28;20461;-56
2021/08/14 11:11:00;;;;;;;9.53;5.40;;;28.10;41.90;;;;;;4987757;28;20854;-55
2021/08/14 11:14:07;;;;;;;6.40;5.30;;;28.50;43.70;;;;;;4998240;28;20488;-56
2021/08/14 11:16:57;;;;;;;8.30;5.10;;;28.80;43.60;;;;;;4995246;28;20468;-54
2021/08/14 11:19:47;;;;;;;11.40;5.80;;;28.80;45.00;;;;;;4998694;28;20467;-54
2021/08/14 11:22:30;;;;;;;5.53;4.13;;;29.00;44.50;;;;;;4989130;28;20547;-55
2021/08/14 11:25:01;;;;;;;5.00;4.50;;;29.40;46.70;;;;;;4994852;28;20469;-56
2021/08/14 11:27:32;;;;;;;6.20;4.70;;;29.50;45.30;;;;;;4997997;28;20468;-55
2021/08/14 11:30:10;;;;;;;7.23;4.53;;;29.70;44.70;;;;;;4997347;28;20563;-56
2021/08/14 11:32:37;;;;;;;7.97;4.83;;;30.00;44.10;;;;;;4996416;28;20465;-55
2021/08/14 11:35:07;;;;;;;8.10;5.30;;;29.90;43.30;;;;;;4983662;28;20858;-56
2021/08/14 11:37:52;;;;;;;5.20;4.67;;;29.90;41.30;;;;;;4993131;28;20564;-52
2021/08/14 11:40:22;;;;;;;6.53;5.30;;;29.50;41.40;;;;;;4997481;28;20475;-53
2021/08/14 11:42:57;;;;;;;9.13;5.03;;;29.50;41.90;;;;;;4994017;28;20470;-55
2021/08/14 11:45:25;;;;;;;6.20;4.77;;;29.30;42.70;;;;;;4998476;28;20460;-54
2021/08/14 11:47:57;;;;;;;5.60;5.10;;;29.20;43.00;;;;;;4991354;28;20974;-56
2021/08/14 11:50:32;;;;;;;6.97;4.80;;;29.00;43.10;;;;;;4989173;28;20468;-56
2021/08/14 11:53:00;;;;;;;7.50;4.43;;;28.90;43.20;;;;;;4985653;28;20493;-56
2021/08/14 11:55:27;;;;;;;7.97;5.80;;;29.00;44.20;;;;;;4991368;28;20997;-53
2021/08/14 11:57:54;;;;;;;6.53;4.90;;;29.10;43.10;;;;;;4988157;28;20548;-55
2021/08/14 12:00:23;;;;;;;8.63;4.77;;;29.70;42.00;;;;;;4987063;28;20564;-56
2021/08/14 12:37:15;;;;;;;5.60;5.00;;;28.30;43.50;;;;;;2706958;23;20489;-58
2021/08/14 12:39:54;;;;;;;7.80;4.47;;;29.30;43.10;;;;;;4985181;28;20475;-59
2021/08/14 12:42:23;;;;;;;5.13;4.37;;;29.70;41.10;;;;;;4988538;28;20476;-59
2021/08/14 12:44:51;;;;;;;7.20;5.20;;;29.50;40.80;;;;;;4985217;28;21001;-58
2021/08/14 12:47:28;;;;;;;5.73;5.00;;;29.30;41.30;;;;;;4996875;28;20500;-58
2021/08/14 12:50:15;;;;;;;8.90;5.77;;;28.80;41.30;;;;;;4987930;28;20503;-56
2021/08/14 12:53:01;;;;;;;6.40;4.70;;;28.60;42.50;;;;;;4986055;28;20523;-58
2021/08/14 12:55:33;;;;;;;5.27;4.40;;;28.70;42.30;;;;;;4995944;28;20743;-58
2021/08/14 12:58:01;;;;;;;9.53;4.70;;;29.10;43.50;;;;;;4987809;28;20879;-57
2021/08/14 13:00:29;;;;;;;5.70;4.77;;;29.50;41.60;;;;;;4988809;28;20866;-55
2021/08/14 13:02:56;;;;;;;4.97;3.90;;;29.90;41.40;;;;;;4983307;28;20961;-55
2021/08/14 13:05:23;;;;;;;7.23;4.73;;;30.00;41.00;;;;;;4991047;28;20540;-55
2021/08/14 13:07:53;;;;;;;9.17;5.47;;;30.00;40.90;;;;;;4997288;28;20968;-58
2021/08/14 13:10:21;;;;;;;5.23;4.17;;;30.20;41.40;;;;;;4989927;28;20948;-58
2021/08/14 13:12:50;;;;;;;6.10;4.40;;;29.80;40.50;;;;;;4996550;28;20496;-56
2021/08/14 13:15:18;;;;;;;5.63;4.80;;;29.00;41.90;;;;;;4988523;28;20520;-59
2021/08/14 13:17:45;;;;;;;7.87;5.07;;;29.20;42.90;;;;;;4995063;28;20532;-58
2021/08/14 13:20:13;;;;;;;7.13;4.67;;;29.80;42.80;;;;;;4998048;28;20496;-59
2021/08/14 13:22:40;;;;;;;5.77;4.00;;;30.50;42.00;;;;;;4990189;28;20768;-58
2021/08/14 13:25:10;;;;;;;5.10;4.70;;;29.70;41.00;;;;;;4997270;28;20528;-58
2021/08/14 13:27:45;;;;;;;6.63;4.70;;;29.60;42.00;;;;;;4986007;28;20528;-58
2021/08/14 13:30:15;;;;;;;6.70;4.90;;;30.00;42.10;;;;;;4990411;28;20515;-59
2021/08/14 13:32:42;;;;;;;6.10;5.27;;;30.50;41.20;;;;;;4989212;28;20473;-58
2021/08/14 13:35:10;;;;;;;6.30;4.60;;;30.70;40.90;;;;;;4992839;28;20818;-58
2021/08/14 13:37:37;;;;;;;5.30;4.50;;;30.70;41.60;;;;;;4980073;28;20534;-59
2021/08/14 13:40:06;;;;;;;5.40;4.27;;;31.00;40.30;;;;;;4980198;28;20847;-59
2021/08/14 13:42:36;;;;;;;7.23;4.70;;;30.70;41.00;;;;;;4984549;28;20831;-57
2021/08/14 13:45:05;;;;;;;5.10;4.27;;;30.60;40.90;;;;;;4991839;28;20505;-56
2021/08/14 13:47:32;;;;;;;6.60;4.80;;;30.20;40.90;;;;;;4990711;28;20526;-56
2021/08/14 13:50:00;;;;;;;5.73;4.87;;;30.50;42.40;;;;;;4984894;28;20555;-56
2021/08/14 13:52:29;;;;;;;4.87;4.40;;;30.80;41.00;;;;;;4994758;28;20940;-53
2021/08/14 13:54:56;;;;;;;5.77;5.17;;;30.60;39.20;;;;;;4983186;28;20913;-56
2021/08/14 13:57:26;;;;;;;8.93;5.00;;;29.90;40.10;;;;;;4984668;28;20564;-51
2021/08/14 13:59:57;;;;;;;5.40;4.90;;;29.30;40.30;;;;;;4983113;28;20501;-56
2021/08/14 14:36:52;;;;;;;6.27;5.63;;;29.20;43.30;;;;;;5331321;23;20447;-59
2021/08/14 14:39:19;;;;;;;5.73;4.67;;;29.20;43.80;;;;;;5012298;28;20534;-52
2021/08/14 14:41:50;;;;;;;6.77;5.00;;;29.30;44.00;;;;;;5011931;28;20487;-55
2021/08/14 14:44:17;;;;;;;7.30;5.70;;;29.20;43.70;;;;;;5006758;28;20543;-59
2021/08/14 14:46:44;;;;;;;5.23;4.73;;;29.20;44.10;;;;;;5014700;28;20527;-55
2021/08/14 14:49:12;;;;;;;6.80;5.27;;;29.30;43.60;;;;;;5011147;28;20491;-55
2021/08/14 14:51:39;;;;;;;5.33;4.83;;;29.40;44.00;;;;;;5029768;28;20463;-54
2021/08/14 14:54:10;;;;;;;5.80;5.07;;;29.20;43.30;;;;;;5007916;28;20805;-57
2021/08/14 14:56:39;;;;;;;5.27;4.53;;;29.20;43.50;;;;;;5012979;28;20488;-58
2021/08/14 14:59:06;;;;;;;7.33;6.60;;;28.90;43.40;;;;;;5009000;28;20874;-59
2021/08/14 15:39:42;;;;;;;12.77;7.67;;;28.10;46.20;;;;;;5121240;23;20488;-56
2021/08/14 15:42:11;;;;;;;7.30;5.43;;;27.90;47.00;;;;;;4981629;28;20501;-57
2021/08/14 15:44:38;;;;;;;6.20;5.63;;;28.00;48.00;;;;;;4983142;28;20465;-56
2021/08/14 15:47:05;;;;;;;8.33;6.10;;;28.10;47.50;;;;;;4987962;28;20764;-59
2021/08/14 15:49:36;;;;;;;7.20;6.50;;;27.90;47.70;;;;;;4987398;28;20493;-58
2021/08/14 15:52:04;;;;;;;6.50;5.90;;;27.80;48.70;;;;;;4991156;28;20466;-59
2021/08/14 15:54:31;;;;;;;9.17;6.00;;;28.00;48.00;;;;;;4986132;28;20489;-57
2021/08/14 15:56:59;;;;;;;8.10;6.23;;;28.00;48.50;;;;;;4985860;28;20549;-57
2021/08/14 15:59:26;;;;;;;7.77;5.60;;;27.70;47.80;;;;;;4995956;28;20572;-57
2021/08/14 16:01:53;;;;;;;10.10;6.47;;;27.90;48.60;;;;;;4984543;28;20549;-55
2021/08/14 16:04:22;;;;;;;7.70;6.20;;;28.20;48.40;;;;;;4995052;28;20468;-54
2021/08/14 16:06:51;;;;;;;9.70;5.97;;;27.80;48.70;;;;;;4983167;28;20505;-53
2021/08/14 16:09:21;;;;;;;6.90;6.20;;;27.80;48.20;;;;;;4992383;28;20477;-52
2021/08/14 16:11:50;;;;;;;6.90;6.17;;;27.20;49.50;;;;;;4989440;28;20465;-56
2021/08/14 16:14:22;;;;;;;12.10;7.07;;;27.20;49.80;;;;;;4984368;28;20913;-56
2021/08/14 16:16:49;;;;;;;9.50;5.87;;;27.30;50.50;;;;;;4984613;28;20468;-49
2021/08/14 16:19:18;;;;;;;9.33;6.43;;;27.60;49.80;;;;;;4979516;28;20497;-56
2021/08/14 16:21:48;;;;;;;9.97;6.67;;;27.50;49.80;;;;;;4989146;28;20492;-52
2021/08/14 16:24:15;;;;;;;7.90;6.47;;;27.70;50.20;;;;;;4992359;28;20504;-56
2021/08/14 16:26:45;;;;;;;8.67;6.50;;;27.10;51.10;;;;;;4989434;28;20579;-56
2021/08/14 16:29:17;;;;;;;12.80;6.93;;;27.10;51.40;;;;;;4983153;28;20533;-55
2021/08/14 16:31:46;;;;;;;10.10;5.50;;;27.00;51.80;;;;;;4987899;28;20461;-54
2021/08/14 16:34:12;;;;;;;9.40;6.97;;;27.00;51.40;;;;;;4986404;28;20494;-54
2021/08/14 16:36:44;;;;;;;6.70;5.00;;;27.00;51.20;;;;;;4987465;28;20907;-54